createdAt,value
2018-05-15T00:00:27.495Z,101675.41
2018-05-15T00:02:08.529Z,101701.36
2018-05-15T00:03:50.105Z,101772.87
2018-05-15T00:05:27.648Z,101699.09
2018-05-15T00:07:05.706Z,101777.80
2018-05-15T00:08:43.220Z,101780.95
2018-05-15T00:10:20.747Z,101731.66
2018-05-15T00:11:57.312Z,101666.51
2018-05-15T00:13:34.507Z,101649.94
2018-05-15T00:15:15.283Z,101632.56
2018-05-15T00:16:53.268Z,101567.73
2018-05-15T00:18:29.903Z,101616.02
2018-05-15T00:20:06.674Z,101598.59
2018-05-15T00:21:43.700Z,101571.33
2018-05-15T00:23:21.153Z,101590.51
2018-05-15T00:24:58.940Z,101582.53
2018-05-15T00:26:36.390Z,101529.79
2018-05-15T00:28:13.881Z,101610.20
2018-05-15T00:29:52.353Z,101579.80
2018-05-15T00:31:29.160Z,101503.91
2018-05-15T00:33:05.832Z,101421.82
2018-05-15T00:34:43.018Z,101347.74
2018-05-15T00:36:20.762Z,101343.36
2018-05-15T00:37:57.053Z,101392.42
2018-05-15T00:39:33.667Z,101405.35
2018-05-15T00:41:12.706Z,101432.55
2018-05-15T00:42:49.746Z,101481.58
2018-05-15T00:44:26.613Z,101438.27
2018-05-15T00:46:03.493Z,101379.41
2018-05-15T00:47:39.913Z,101306.72
2018-05-15T00:49:18.398Z,101338.89
2018-05-15T00:50:55.610Z,101406.16
2018-05-15T00:52:32.477Z,101404.86
2018-05-15T00:54:09.073Z,101391.88
2018-05-15T00:55:47.438Z,101349.95
2018-05-15T00:57:24.579Z,101338.87
2018-05-15T00:59:01.442Z,101300.47
2018-05-15T01:00:38.338Z,101366.94
2018-05-15T01:02:15.366Z,101307.14
2018-05-15T01:03:52.160Z,101260.81
2018-05-15T01:05:28.601Z,101312.95
2018-05-15T01:07:06.145Z,101279.03
2018-05-15T01:08:43.752Z,101298.23
2018-05-15T01:10:20.196Z,101304.44
2018-05-15T01:11:56.574Z,101138.72
2018-05-15T01:13:33.162Z,101082.66
2018-05-15T01:15:10.205Z,101100.00
2018-05-15T01:16:48.021Z,101113.35
2018-05-15T01:18:24.438Z,101123.56
2018-05-15T01:20:07.163Z,101085.30
2018-05-15T01:21:46.159Z,101020.77
2018-05-15T01:23:23.028Z,100968.68
2018-05-15T01:24:59.512Z,100957.07
2018-05-15T01:26:36.553Z,100936.66
2018-05-15T01:28:13.466Z,101073.70
2018-05-15T01:29:50.438Z,101133.78
2018-05-15T01:31:27.839Z,101142.63
2018-05-15T01:33:04.238Z,101033.22
2018-05-15T01:34:41.038Z,100922.44
2018-05-15T01:36:18.142Z,100884.27
2018-05-15T01:37:55.779Z,100812.23
2018-05-15T01:39:32.666Z,100829.50
2018-05-15T01:41:09.680Z,100886.91
2018-05-15T01:42:46.492Z,100925.02
2018-05-15T01:44:23.178Z,100919.30
2018-05-15T01:46:00.000Z,100956.19
2018-05-15T01:47:37.209Z,101043.05
2018-05-15T01:49:14.045Z,101046.06
2018-05-15T01:50:50.505Z,101086.16
2018-05-15T01:52:27.752Z,101009.13
2018-05-15T01:54:04.544Z,101002.87
2018-05-15T01:55:41.834Z,100928.52
2018-05-15T01:57:18.609Z,100837.88
2018-05-15T01:58:56.081Z,100899.66
2018-05-15T02:00:33.469Z,100932.15
2018-05-15T02:02:10.155Z,100985.96
2018-05-15T02:03:46.568Z,100916.14
2018-05-15T02:05:23.230Z,100915.26
2018-05-15T02:07:00.612Z,100962.35
2018-05-15T02:08:37.113Z,100980.13
2018-05-15T02:10:15.397Z,100923.30
2018-05-15T02:11:56.473Z,101028.23
2018-05-15T02:13:34.204Z,101040.70
2018-05-15T02:15:15.117Z,100893.02
2018-05-15T02:16:51.990Z,100847.58
2018-05-15T02:18:29.322Z,100784.97
2018-05-15T02:20:07.045Z,100653.03
2018-05-15T02:21:43.790Z,100661.88
2018-05-15T02:23:21.909Z,100727.70
2018-05-15T02:24:59.575Z,100796.54
2018-05-15T02:26:36.783Z,100743.66
2018-05-15T02:28:13.495Z,100785.44
2018-05-15T02:29:50.387Z,100858.77
2018-05-15T02:31:27.901Z,100918.81
2018-05-15T02:33:04.811Z,100905.88
2018-05-15T02:34:41.249Z,100957.05
2018-05-15T02:36:17.883Z,100920.59
2018-05-15T02:37:56.627Z,100959.30
2018-05-15T02:39:33.875Z,101005.52
2018-05-15T02:41:10.779Z,101013.51
2018-05-15T02:42:48.918Z,100964.14
2018-05-15T02:44:25.274Z,100905.41
2018-05-15T02:46:02.430Z,100801.84
2018-05-15T02:47:40.899Z,100819.69
2018-05-15T02:49:18.058Z,100787.19
2018-05-15T02:50:55.122Z,100677.45
2018-05-15T02:52:33.260Z,100718.83
2018-05-15T02:54:11.713Z,100807.58
2018-05-15T02:55:51.127Z,100782.77
2018-05-15T02:57:30.406Z,100759.66
2018-05-15T02:59:08.841Z,100776.56
2018-05-15T03:00:46.135Z,100748.09
2018-05-15T03:02:23.105Z,100599.77
2018-05-15T03:04:01.923Z,100538.37
2018-05-15T03:05:40.494Z,100481.23
2018-05-15T03:07:17.594Z,100409.83
2018-05-15T03:08:55.605Z,100395.15
2018-05-15T03:10:32.978Z,100379.63
2018-05-15T03:12:09.847Z,100375.66
2018-05-15T03:13:47.534Z,100449.70
2018-05-15T03:15:25.255Z,100501.20
2018-05-15T03:17:01.969Z,100551.66
2018-05-15T03:18:38.637Z,100570.36
2018-05-15T03:20:16.016Z,100608.02
2018-05-15T03:21:53.258Z,100560.61
2018-05-15T03:23:31.473Z,100557.48
2018-05-15T03:25:11.449Z,100344.55
2018-05-15T03:26:51.719Z,100225.40
2018-05-15T03:28:31.656Z,100256.89
2018-05-15T03:30:10.856Z,100221.44
2018-05-15T03:31:51.219Z,100110.23
2018-05-15T03:33:28.808Z,100122.70
2018-05-15T03:35:05.492Z,100151.48
2018-05-15T03:36:42.610Z,100185.98
2018-05-15T03:38:23.074Z,100150.08
2018-05-15T03:40:00.258Z,100131.08
2018-05-15T03:41:39.211Z,100140.36
2018-05-15T03:43:16.003Z,100197.05
2018-05-15T03:44:52.461Z,100208.52
2018-05-15T03:46:30.015Z,100241.31
2018-05-15T03:48:08.285Z,100251.48
2018-05-15T03:49:44.878Z,100214.30
2018-05-15T03:51:22.225Z,100340.52
2018-05-15T03:52:58.635Z,100358.67
2018-05-15T03:54:35.048Z,100258.95
2018-05-15T03:56:11.639Z,100295.32
2018-05-15T03:57:49.462Z,100415.93
2018-05-15T03:59:25.811Z,100493.56
2018-05-15T04:03:20.361Z,100602.22
2018-05-15T04:08:16.177Z,100334.73
2018-05-15T04:09:54.487Z,100413.68
2018-05-15T04:11:31.678Z,100378.66
2018-05-15T04:13:08.389Z,100520.59
2018-05-15T04:14:44.995Z,100521.41
2018-05-15T04:16:23.318Z,100528.11
2018-05-15T04:17:59.757Z,100528.95
2018-05-15T04:19:37.700Z,100481.20
2018-05-15T04:21:14.912Z,100650.61
2018-05-15T04:22:53.611Z,100746.56
2018-05-15T04:24:31.028Z,100578.70
2018-05-15T04:26:10.363Z,100666.69
2018-05-15T04:27:47.547Z,100639.98
2018-05-15T04:29:25.142Z,100544.92
2018-05-15T04:31:01.579Z,100650.16
2018-05-15T04:32:43.011Z,100835.86
2018-05-15T04:34:27.385Z,100960.81
2018-05-15T04:36:05.401Z,101056.53
2018-05-15T04:37:57.383Z,101138.84
2018-05-15T04:39:34.168Z,101293.45
2018-05-15T04:41:11.405Z,101318.86
2018-05-15T04:42:48.132Z,101201.66
2018-05-15T04:44:26.486Z,101242.66
2018-05-15T04:46:03.322Z,101238.27
2018-05-15T04:47:40.382Z,101433.48
2018-05-15T04:49:18.089Z,101621.83
2018-05-15T04:50:55.223Z,101804.19
2018-05-15T04:52:31.775Z,101888.64
2018-05-15T04:54:08.741Z,101911.06
2018-05-15T04:55:49.775Z,101989.39
2018-05-15T04:57:26.268Z,102047.55
2018-05-15T04:59:02.998Z,102129.50
2018-05-15T05:00:40.645Z,102274.71
2018-05-15T05:02:17.566Z,102186.37
2018-05-15T05:03:54.843Z,102250.08
2018-05-15T05:05:31.271Z,102287.69
2018-05-15T05:07:07.646Z,102304.31
2018-05-15T05:08:44.623Z,102326.73
2018-05-15T05:10:22.733Z,102331.59
2018-05-15T05:11:59.812Z,102322.69
2018-05-15T05:13:36.274Z,102258.59
2018-05-15T05:15:15.762Z,102155.89
2018-05-15T05:16:52.846Z,102052.10
2018-05-15T05:18:29.279Z,102200.32
2018-05-15T05:20:06.617Z,102333.42
2018-05-15T05:21:44.052Z,102386.33
2018-05-15T05:23:21.269Z,102267.94
2018-05-15T05:24:58.236Z,102228.06
2018-05-15T05:26:50.173Z,102048.91
2018-05-15T05:28:35.851Z,101894.52
2018-05-15T05:30:14.126Z,101814.97
2018-05-15T05:31:50.780Z,101807.27
2018-05-15T05:33:27.051Z,101724.59
2018-05-15T05:35:04.324Z,101735.34
2018-05-15T05:36:40.736Z,101677.24
2018-05-15T05:38:17.492Z,101618.73
2018-05-15T05:39:54.594Z,101796.56
2018-05-15T05:41:31.576Z,101900.68
2018-05-15T05:43:08.152Z,101995.18
2018-05-15T05:44:44.516Z,102021.56
2018-05-15T05:46:21.734Z,101902.08
2018-05-15T05:47:58.360Z,101856.81
2018-05-15T05:49:35.457Z,101923.55
2018-05-15T05:51:23.617Z,102030.01
2018-05-15T05:53:00.722Z,102069.45
2018-05-15T05:54:37.781Z,101731.65
2018-05-15T05:56:16.182Z,101699.55
2018-05-15T05:57:55.597Z,101874.77
2018-05-15T05:59:32.578Z,102023.78
2018-05-15T06:01:09.511Z,101971.38
2018-05-15T06:02:47.213Z,101723.14
2018-05-15T06:04:24.083Z,101683.47
2018-05-15T06:06:02.723Z,101885.91
2018-05-15T06:07:42.954Z,102014.79
2018-05-15T06:09:19.520Z,101859.97
2018-05-15T06:10:56.631Z,101842.97
2018-05-15T06:12:35.145Z,101906.88
2018-05-15T06:14:14.576Z,101939.53
2018-05-15T06:15:51.292Z,102027.77
2018-05-15T06:17:28.405Z,102054.59
2018-05-15T06:19:25.844Z,102059.55
2018-05-15T06:22:45.733Z,101885.84
2018-05-15T06:24:22.894Z,101987.90
2018-05-15T06:26:00.958Z,101964.61
2018-05-15T06:27:38.477Z,101639.14
2018-05-15T06:29:15.953Z,101664.58
2018-05-15T06:30:53.970Z,101722.59
2018-05-15T06:32:33.428Z,101826.80
2018-05-15T06:34:16.227Z,101873.30
2018-05-15T06:35:53.264Z,101876.45
2018-05-15T06:37:30.692Z,101874.19
2018-05-15T06:39:09.401Z,101878.16
2018-05-15T06:40:46.138Z,101983.75
2018-05-15T06:42:23.373Z,101937.65
2018-05-15T06:43:59.723Z,101892.03
2018-05-15T06:45:36.864Z,101915.72
2018-05-15T06:47:18.250Z,101866.95
2018-05-15T06:48:56.737Z,101815.52
2018-05-15T06:50:39.518Z,101736.45
2018-05-15T06:52:17.922Z,101672.54
2018-05-15T06:54:01.205Z,101646.19
2018-05-15T06:55:38.767Z,101669.39
2018-05-15T06:57:16.394Z,101651.13
2018-05-15T06:58:54.426Z,101623.83
2018-05-15T07:02:26.208Z,101645.27
2018-05-15T07:04:03.021Z,101692.59
2018-05-15T07:05:45.141Z,101823.08
2018-05-15T07:07:24.272Z,101770.78
2018-05-15T07:09:05.525Z,101956.81
2018-05-15T07:10:44.647Z,102108.61
2018-05-15T07:12:20.884Z,102151.99
2018-05-15T07:14:06.401Z,102074.53
2018-05-15T07:15:44.068Z,101903.19
2018-05-15T07:17:22.274Z,101858.86
2018-05-15T07:18:59.812Z,101985.87
2018-05-15T07:20:37.486Z,102109.90
2018-05-15T07:22:14.976Z,102224.58
2018-05-15T07:25:35.776Z,102410.18
2018-05-15T07:27:12.048Z,102453.66
2018-05-15T07:28:48.306Z,102412.41
2018-05-15T07:30:26.874Z,102145.69
2018-05-15T07:32:04.026Z,102057.95
2018-05-15T07:33:40.315Z,102182.89
2018-05-15T07:35:17.331Z,102329.45
2018-05-15T07:36:54.142Z,102335.23
2018-05-15T07:38:30.468Z,102236.58
2018-05-15T07:40:07.654Z,102164.52
2018-05-15T07:41:43.927Z,102004.64
2018-05-15T07:43:20.657Z,102038.63
2018-05-15T07:44:57.646Z,102130.45
2018-05-15T07:46:34.392Z,102030.66
2018-05-15T07:48:10.663Z,102034.67
2018-05-15T07:49:47.346Z,102186.43
2018-05-15T07:51:23.669Z,102139.39
2018-05-15T07:52:59.935Z,102078.08
2018-05-15T07:54:36.464Z,102118.30
2018-05-15T07:56:13.337Z,101931.23
2018-05-15T07:57:49.657Z,102099.08
2018-05-15T07:59:26.696Z,102210.11
2018-05-15T08:01:03.253Z,102262.59
2018-05-15T08:02:40.054Z,102232.13
2018-05-15T08:04:17.167Z,102203.40
2018-05-15T08:05:53.533Z,102297.97
2018-05-15T08:07:29.821Z,102206.09
2018-05-15T08:09:07.627Z,102236.60
2018-05-15T08:10:43.965Z,102271.06
2018-05-15T08:12:20.214Z,102205.16
2018-05-15T08:13:56.457Z,102092.38
2018-05-15T08:15:34.587Z,102144.75
2018-05-15T08:17:10.916Z,102217.28
2018-05-15T08:18:47.226Z,102213.27
2018-05-15T08:20:23.430Z,102216.39
2018-05-15T08:22:00.111Z,102193.00
2018-05-15T08:23:37.216Z,102108.86
2018-05-15T08:25:13.539Z,102026.08
2018-05-15T08:26:50.597Z,101922.63
2018-05-15T08:28:27.292Z,101943.65
2018-05-15T08:30:04.406Z,101898.48
2018-05-15T08:31:41.005Z,101984.38
2018-05-15T08:33:17.378Z,102174.66
2018-05-15T08:34:54.790Z,102238.80
2018-05-15T08:38:03.825Z,102277.75
2018-05-15T08:39:40.903Z,102245.45
2018-05-15T08:41:18.361Z,102278.62
2018-05-15T08:42:55.433Z,102333.73
2018-05-15T08:44:31.694Z,102294.30
2018-05-15T08:46:10.835Z,102442.73
2018-05-15T08:47:49.166Z,102566.20
2018-05-15T08:49:29.449Z,102493.45
2018-05-15T08:51:07.034Z,102226.20
2018-05-15T08:52:43.400Z,102305.53
2018-05-15T08:54:20.489Z,102390.23
2018-05-15T08:55:58.269Z,102421.63
2018-05-15T08:57:35.691Z,102454.34
2018-05-15T08:59:12.335Z,102374.48
2018-05-15T09:01:01.901Z,102238.68
2018-05-15T09:02:42.275Z,102293.79
2018-05-15T09:04:18.661Z,102210.97
2018-05-15T09:05:56.132Z,102316.64
2018-05-15T09:07:33.840Z,102428.77
2018-05-15T09:09:13.436Z,102441.36
2018-05-15T09:10:53.696Z,102466.01
2018-05-15T09:12:30.885Z,102374.98
2018-05-15T09:14:08.162Z,102514.52
2018-05-15T09:15:45.042Z,102553.11
2018-05-15T09:17:22.865Z,102549.48
2018-05-15T09:19:01.013Z,102546.34
2018-05-15T09:20:37.686Z,102385.69
2018-05-15T09:22:15.200Z,102461.95
2018-05-15T09:23:52.422Z,102673.95
2018-05-15T09:25:30.908Z,102686.97
2018-05-15T09:27:10.671Z,102505.04
2018-05-15T09:28:48.565Z,102384.80
2018-05-15T09:30:29.282Z,102344.87
2018-05-15T09:32:08.959Z,102300.87
2018-05-15T09:33:46.581Z,102184.81
2018-05-15T09:35:23.636Z,102103.73
2018-05-15T09:39:30.572Z,102211.70
2018-05-15T09:41:07.043Z,102202.28
2018-05-15T09:42:44.055Z,102234.94
2018-05-15T09:44:20.910Z,102338.03
2018-05-15T09:45:57.489Z,102294.11
2018-05-15T09:47:33.929Z,102382.02
2018-05-15T09:49:10.335Z,102565.97
2018-05-15T09:50:47.609Z,102575.84
2018-05-15T09:52:26.271Z,102670.69
2018-05-15T09:54:02.805Z,102634.70
2018-05-15T09:55:39.094Z,102451.47
2018-05-15T09:57:15.875Z,102398.12
2018-05-15T09:58:52.380Z,102353.21
2018-05-15T10:00:33.031Z,102374.34
2018-05-15T10:02:10.664Z,102540.84
2018-05-15T10:03:48.388Z,102500.48
2018-05-15T10:05:29.435Z,102566.44
2018-05-15T10:07:07.802Z,102669.73
2018-05-15T10:08:49.233Z,102611.32
2018-05-15T10:10:26.754Z,102766.86
2018-05-15T10:12:06.573Z,102726.77
2018-05-15T10:13:46.041Z,102520.56
2018-05-15T10:15:27.481Z,102595.16
2018-05-15T10:17:04.568Z,102665.66
2018-05-15T10:18:42.449Z,102722.68
2018-05-15T10:20:19.124Z,102717.28
2018-05-15T10:21:59.163Z,102602.72
2018-05-15T10:23:43.657Z,102589.19
2018-05-15T10:25:24.027Z,102710.95
2018-05-15T10:27:00.790Z,102669.62
2018-05-15T10:28:37.302Z,102617.97
2018-05-15T10:30:15.915Z,102737.91
2018-05-15T10:32:35.726Z,102704.69
2018-05-15T10:34:13.252Z,102643.54
2018-05-15T10:35:52.222Z,102666.44
2018-05-15T10:37:34.543Z,102581.52
2018-05-15T10:39:14.869Z,102613.41
2018-05-15T10:40:52.369Z,102617.02
2018-05-15T10:42:31.960Z,102670.00
2018-05-15T10:44:10.668Z,102647.94
2018-05-15T10:46:05.858Z,102588.70
2018-05-15T10:47:43.829Z,102535.70
2018-05-15T10:49:20.733Z,102576.98
2018-05-15T10:51:02.867Z,102815.65
2018-05-15T10:52:39.893Z,102766.19
2018-05-15T10:54:16.306Z,102718.54
2018-05-15T10:55:55.890Z,102769.28
2018-05-15T10:57:34.143Z,102782.77
2018-05-15T10:59:30.855Z,102791.75
2018-05-15T11:01:16.126Z,102600.76
2018-05-15T11:03:11.019Z,102505.58
2018-05-15T11:04:52.300Z,102704.08
2018-05-15T11:06:37.164Z,102834.02
2018-05-15T11:08:15.212Z,102649.68
2018-05-15T11:10:53.891Z,102691.48
2018-05-15T11:12:43.345Z,102708.95
2018-05-15T11:14:25.431Z,102659.50
2018-05-15T11:16:02.008Z,102655.05
2018-05-15T11:17:39.048Z,102653.70
2018-05-15T11:20:30.881Z,102721.12
2018-05-15T11:22:25.227Z,102673.47
2018-05-15T11:24:22.809Z,102764.67
2018-05-15T11:26:07.868Z,102723.36
2018-05-15T11:27:44.710Z,102642.89
2018-05-15T11:29:21.295Z,102604.67
2018-05-15T11:30:58.591Z,102631.19
2018-05-15T11:32:36.990Z,102608.75
2018-05-15T11:34:14.256Z,102614.09
2018-05-15T11:35:51.593Z,102571.91
2018-05-15T11:37:33.479Z,102702.21
2018-05-15T11:39:11.966Z,102793.45
2018-05-15T11:40:48.552Z,102719.73
2018-05-15T11:42:26.863Z,102693.59
2018-05-15T11:44:10.288Z,102683.69
2018-05-15T11:45:47.230Z,102658.97
2018-05-15T11:47:23.964Z,102685.97
2018-05-15T11:49:01.560Z,102712.05
2018-05-15T11:50:39.983Z,102622.58
2018-05-15T11:52:17.716Z,102597.88
2018-05-15T11:53:54.194Z,102709.30
2018-05-15T11:55:35.293Z,102615.78
2018-05-15T11:57:08.347Z,102608.20
2018-05-15T11:58:45.208Z,102727.73
2018-05-15T12:00:23.176Z,102696.67
2018-05-15T12:02:00.782Z,102533.64
2018-05-15T12:03:49.036Z,102534.98
2018-05-15T12:05:27.012Z,102746.13
2018-05-15T12:07:04.008Z,102800.94
2018-05-15T12:08:42.703Z,102773.55
2018-05-15T12:10:20.410Z,102723.19
2018-05-15T12:11:58.188Z,102720.51
2018-05-15T12:13:36.048Z,102832.41
2018-05-15T12:15:15.140Z,102866.13
2018-05-15T12:17:00.007Z,102777.56
2018-05-15T12:18:38.316Z,102713.71
2018-05-15T12:20:17.926Z,102709.66
2018-05-15T12:21:56.330Z,102547.03
2018-05-15T12:23:41.415Z,102623.37
2018-05-15T12:25:19.530Z,102777.03
2018-05-15T12:26:57.606Z,102828.77
2018-05-15T12:28:38.969Z,102778.39
2018-05-15T12:30:17.367Z,102779.76
2018-05-15T12:31:55.963Z,102739.29
2018-05-15T12:33:32.632Z,102863.84
2018-05-15T12:35:10.708Z,102763.11
2018-05-15T12:36:52.256Z,102838.20
2018-05-15T12:38:31.681Z,102889.90
2018-05-15T12:40:08.566Z,102912.41
2018-05-15T12:41:49.933Z,103030.37
2018-05-15T12:43:28.130Z,103133.05
2018-05-15T12:45:06.778Z,103014.50
2018-05-15T12:46:50.415Z,103026.73
2018-05-15T12:48:42.021Z,103028.06
2018-05-15T12:50:21.612Z,102994.77
2018-05-15T12:52:10.944Z,103070.41
2018-05-15T12:53:52.345Z,102889.92
2018-05-15T12:57:06.350Z,102723.94
2018-05-15T12:58:42.977Z,102742.80
2018-05-15T13:00:19.841Z,102823.30
2018-05-15T13:01:58.918Z,102803.08
2018-05-15T13:03:41.360Z,102906.96
2018-05-15T13:05:18.193Z,102997.88
2018-05-15T13:06:55.261Z,102990.66
2018-05-15T13:08:31.874Z,102999.67
2018-05-15T13:10:10.283Z,103035.22
2018-05-15T13:11:47.701Z,103059.50
2018-05-15T13:13:26.917Z,103088.81
2018-05-15T13:15:06.634Z,103022.16
2018-05-15T13:16:47.237Z,102961.41
2018-05-15T13:18:29.504Z,102892.50
2018-05-15T13:20:09.777Z,102864.20
2018-05-15T13:21:47.791Z,102878.97
2018-05-15T13:23:24.493Z,102825.50
2018-05-15T13:25:01.572Z,102865.97
2018-05-15T13:26:39.083Z,102962.72
2018-05-15T13:28:17.390Z,102940.16
2018-05-15T13:29:58.833Z,102941.03
2018-05-15T13:31:49.893Z,103047.72
2018-05-15T13:33:28.282Z,103120.25
2018-05-15T13:35:06.007Z,103020.78
2018-05-15T13:36:42.795Z,102931.56
2018-05-15T13:38:19.672Z,102961.36
2018-05-15T13:39:57.268Z,103052.27
2018-05-15T13:41:34.096Z,102888.85
2018-05-15T13:43:10.587Z,102803.84
2018-05-15T13:44:47.523Z,102822.23
2018-05-15T13:46:24.949Z,102921.27
2018-05-15T13:48:02.183Z,102960.38
2018-05-15T13:49:39.223Z,102866.80
2018-05-15T13:51:46.543Z,102942.37
2018-05-15T13:53:23.733Z,102904.55
2018-05-15T13:55:03.401Z,102793.49
2018-05-15T13:56:54.471Z,102786.27
2018-05-15T13:58:33.399Z,102746.21
2018-05-15T14:00:11.288Z,102779.06
2018-05-15T14:01:49.151Z,102687.27
2018-05-15T14:03:29.003Z,102632.50
2018-05-15T14:05:08.793Z,102685.02
2018-05-15T14:06:45.891Z,102828.91
2018-05-15T14:08:24.741Z,102928.80
2018-05-15T14:10:03.677Z,102975.55
2018-05-15T14:11:45.085Z,103017.44
2018-05-15T14:13:25.066Z,103133.19
2018-05-15T14:15:08.578Z,103253.09
2018-05-15T14:16:45.735Z,103212.08
2018-05-15T14:18:29.887Z,103181.86
2018-05-15T14:20:13.675Z,103171.05
2018-05-15T14:22:37.956Z,103210.23
2018-05-15T14:24:14.542Z,103198.02
2018-05-15T14:25:56.118Z,103120.06
2018-05-15T14:27:48.168Z,103058.38
2018-05-15T14:31:40.391Z,102912.96
2018-05-15T14:33:20.234Z,103012.89
2018-05-15T14:34:58.875Z,102938.59
2018-05-15T14:36:36.496Z,102985.44
2018-05-15T14:38:15.081Z,102989.46
2018-05-15T14:39:53.008Z,102829.28
2018-05-15T14:41:44.059Z,102913.37
2018-05-15T14:43:23.124Z,102917.87
2018-05-15T14:45:00.269Z,102768.05
2018-05-15T14:46:37.231Z,102749.20
2018-05-15T14:48:14.661Z,102720.36
2018-05-15T14:49:51.737Z,102733.44
2018-05-15T14:51:32.042Z,102811.70
2018-05-15T14:53:08.920Z,102777.50
2018-05-15T14:54:45.331Z,102901.63
2018-05-15T14:56:25.633Z,103068.64
2018-05-15T14:58:03.542Z,103164.07
2018-05-15T14:59:41.396Z,103161.80
2018-05-15T15:01:18.416Z,103173.57
2018-05-15T15:02:54.868Z,103085.23
2018-05-15T15:04:32.329Z,102850.27
2018-05-15T15:06:09.892Z,102739.61
2018-05-15T15:07:46.386Z,102816.09
2018-05-15T15:09:22.746Z,103002.81
2018-05-15T15:12:37.302Z,103112.70
2018-05-15T15:14:14.406Z,103191.52
2018-05-15T15:15:51.791Z,103230.75
2018-05-15T15:17:28.867Z,103186.52
2018-05-15T15:19:05.307Z,103074.36
2018-05-15T15:20:41.693Z,103118.48
2018-05-15T15:23:55.040Z,103003.66
2018-05-15T15:25:32.769Z,102957.30
2018-05-15T15:27:12.514Z,103008.14
2018-05-15T15:28:49.222Z,103017.13
2018-05-15T15:30:26.646Z,102995.03
2018-05-15T15:32:04.885Z,103091.42
2018-05-15T15:33:41.970Z,103090.06
2018-05-15T15:35:18.976Z,103089.61
2018-05-15T15:36:56.237Z,103087.77
2018-05-15T15:38:32.983Z,103127.84
2018-05-15T15:40:09.574Z,103129.63
2018-05-15T15:41:45.901Z,103167.98
2018-05-15T15:43:23.666Z,103128.30
2018-05-15T15:45:00.915Z,103085.94
2018-05-15T15:46:40.735Z,102985.10
2018-05-15T15:48:17.702Z,102993.19
2018-05-15T15:49:54.188Z,102985.55
2018-05-15T15:51:31.015Z,102962.56
2018-05-15T15:53:07.595Z,102970.22
2018-05-15T15:54:44.008Z,102958.50
2018-05-15T15:56:23.473Z,102937.80
2018-05-15T15:58:01.926Z,102904.05
2018-05-15T15:59:38.693Z,102887.86
2018-05-15T16:01:15.546Z,102880.16
2018-05-15T16:02:51.971Z,102904.43
2018-05-15T16:04:28.744Z,102860.37
2018-05-15T16:06:05.328Z,102817.17
2018-05-15T16:07:42.950Z,102646.83
2018-05-15T16:09:20.122Z,102597.41
2018-05-15T16:11:01.715Z,102703.83
2018-05-15T16:12:39.224Z,102692.16
2018-05-15T16:14:15.615Z,102637.78
2018-05-15T16:15:52.303Z,102612.69
2018-05-15T16:17:29.196Z,102749.70
2018-05-15T16:19:05.885Z,102869.36
2018-05-15T16:20:43.274Z,102895.80
2018-05-15T16:22:20.129Z,102909.30
2018-05-15T16:24:00.619Z,102882.81
2018-05-15T16:25:38.690Z,102967.36
2018-05-15T16:27:17.922Z,102974.12
2018-05-15T16:28:54.665Z,102986.73
2018-05-15T16:30:31.494Z,103009.23
2018-05-15T16:32:12.037Z,103067.30
2018-05-15T16:34:05.019Z,102994.80
2018-05-15T16:35:48.499Z,102971.33
2018-05-15T16:37:25.167Z,102957.39
2018-05-15T16:39:07.575Z,102809.38
2018-05-15T16:40:45.094Z,102811.62
2018-05-15T16:42:27.747Z,102871.93
2018-05-15T16:44:06.906Z,102883.56
2018-05-15T16:45:48.192Z,102810.68
2018-05-15T16:47:39.600Z,102890.80
2018-05-15T16:49:45.645Z,102863.32
2018-05-15T16:51:24.261Z,102824.16
2018-05-15T16:53:01.433Z,102884.42
2018-05-15T16:54:38.158Z,102907.41
2018-05-15T16:56:16.427Z,102933.49
2018-05-15T16:57:53.216Z,102907.39
2018-05-15T16:59:31.087Z,102875.42
2018-05-15T17:01:27.487Z,102910.09
2018-05-15T17:03:13.720Z,102870.87
2018-05-15T17:04:52.148Z,102829.50
2018-05-15T17:06:39.283Z,102811.98
2018-05-15T17:08:30.186Z,102790.34
2018-05-15T17:10:44.221Z,102740.83
2018-05-15T17:12:23.171Z,102713.44
2018-05-15T17:14:00.335Z,102768.30
2018-05-15T17:15:38.152Z,102721.60
2018-05-15T17:17:15.001Z,102809.20
2018-05-15T17:18:51.757Z,102770.10
2018-05-15T17:20:28.494Z,102807.37
2018-05-15T17:22:05.247Z,102551.66
2018-05-15T17:23:42.403Z,102549.41
2018-05-15T17:25:19.213Z,102592.50
2018-05-15T17:26:56.014Z,102769.59
2018-05-15T17:28:32.467Z,102829.44
2018-05-15T17:30:10.259Z,102821.33
2018-05-15T17:31:47.930Z,102780.80
2018-05-15T17:33:24.646Z,102652.31
2018-05-15T17:35:01.735Z,102702.09
2018-05-15T17:36:38.242Z,102795.65
2018-05-15T17:38:14.926Z,102763.25
2018-05-15T17:39:51.398Z,102811.83
2018-05-15T17:41:28.309Z,102756.48
2018-05-15T17:43:04.833Z,102706.17
2018-05-15T17:44:41.270Z,102690.87
2018-05-15T17:46:18.467Z,102771.30
2018-05-15T17:47:55.450Z,102747.00
2018-05-15T17:49:38.433Z,102707.06
2018-05-15T17:51:15.096Z,102615.38
2018-05-15T17:52:51.516Z,102613.55
2018-05-15T17:54:28.617Z,102656.22
2018-05-15T17:56:05.396Z,102707.02
2018-05-15T17:57:41.918Z,102728.59
2018-05-15T17:59:19.811Z,102637.80
2018-05-15T18:01:01.269Z,102616.19
2018-05-15T18:02:37.967Z,102627.39
2018-05-15T18:04:16.790Z,102632.83
2018-05-15T18:05:54.235Z,102739.75
2018-05-15T18:07:32.914Z,102768.08
2018-05-15T18:09:09.438Z,102813.08
2018-05-15T18:10:45.932Z,102847.30
2018-05-15T18:12:22.570Z,102800.03
2018-05-15T18:13:59.276Z,102805.82
2018-05-15T18:15:36.014Z,102670.09
2018-05-15T18:17:12.736Z,102731.14
2018-05-15T18:18:49.908Z,102775.71
2018-05-15T18:20:28.499Z,102813.48
2018-05-15T18:22:05.255Z,102714.56
2018-05-15T18:23:50.454Z,102698.81
2018-05-15T18:27:05.383Z,102856.63
2018-05-15T18:28:42.276Z,102859.76
2018-05-15T18:30:20.438Z,102785.48
2018-05-15T18:31:57.079Z,102767.08
2018-05-15T18:33:34.189Z,102782.34
2018-05-15T18:35:10.601Z,102796.78
2018-05-15T18:36:47.089Z,102771.08
2018-05-15T18:38:23.661Z,102766.16
2018-05-15T18:40:00.566Z,102773.80
2018-05-15T18:41:37.050Z,102713.98
2018-05-15T18:43:13.611Z,102656.00
2018-05-15T18:44:50.699Z,102674.89
2018-05-15T18:46:30.449Z,102709.50
2018-05-15T18:48:07.318Z,102777.84
2018-05-15T18:49:44.548Z,102846.25
2018-05-15T18:51:22.844Z,102864.66
2018-05-15T18:52:59.796Z,102868.67
2018-05-15T18:54:37.124Z,102854.76
2018-05-15T18:56:13.595Z,102856.56
2018-05-15T18:57:50.046Z,102748.10
2018-05-15T18:59:27.510Z,102717.50
2018-05-15T19:01:04.579Z,102682.49
2018-05-15T19:02:41.234Z,102689.66
2018-05-15T19:04:18.506Z,102718.86
2018-05-15T19:05:54.874Z,102776.44
2018-05-15T19:07:33.896Z,102771.02
2018-05-15T19:09:11.118Z,102772.30
2018-05-15T19:10:47.526Z,102803.34